Time;durP1;ratioP1;P1;durP2;ratioP2;P2;SDS_P1;SDS_P2;PMS_P1;PMS_P2;Temp;Humidity;BMP_temperature;BMP_pressure;BME280_temperature;BME280_humidity;BME280_pressure;Samples;Min_cycle;Max_cycle;Signal;HPM_P1;HPM_P2
2022/03/07 00:01:41;;;;;;;;;60.25;46.75;;;;;5.57;47.74;101552.63;5033792;28;45936;-79
2022/03/07 00:04:07;;;;;;;;;59.75;45.50;;;;;5.56;47.90;101564.78;5034924;28;46467;-78
2022/03/07 00:06:32;;;;;;;;;62.75;48.25;;;;;5.54;48.02;101565.75;5034867;28;46546;-79
2022/03/07 00:08:58;;;;;;;;;62.00;45.25;;;;;5.54;48.01;101565.75;5033568;28;46167;-77
2022/03/07 00:11:23;;;;;;;;;63.25;47.75;;;;;5.51;48.65;101564.09;5034419;28;45569;-80
2022/03/07 00:17:37;;;;;;;;;63.00;46.25;;;;;5.46;48.23;101553.00;5053602;28;45771;-77
2022/03/07 00:20:04;;;;;;;;;51.00;44.50;;;;;5.44;48.53;101555.69;5054925;28;45554;-79
2022/03/07 00:22:30;;;;;;;;;62.00;46.50;;;;;5.45;48.19;101561.72;5054755;28;45865;-79
2022/03/07 00:24:55;;;;;;;;;58.50;45.75;;;;;5.45;48.32;101561.72;5054809;28;47647;-78
2022/03/07 00:27:20;;;;;;;;;59.75;46.75;;;;;5.41;48.38;101553.19;5054550;28;46423;-79
2022/03/07 00:29:46;;;;;;;;;59.75;48.25;;;;;5.42;49.04;101569.63;5054797;28;45828;-76
2022/03/07 00:32:11;;;;;;;;;56.00;40.75;;;;;5.37;48.31;101554.19;5054775;28;45646;-77
2022/03/07 00:34:37;;;;;;;;;46.50;42.25;;;;;5.40;48.53;101561.88;5054530;28;46499;-75
2022/03/07 00:37:02;;;;;;;;;53.00;42.50;;;;;5.37;48.87;101559.38;5054442;28;46918;-76
2022/03/07 00:39:28;;;;;;;;;60.00;46.50;;;;;5.36;48.88;101562.03;5053109;28;45913;-78
2022/03/07 00:41:53;;;;;;;;;53.00;42.00;;;;;5.32;48.77;101568.22;5053985;28;45802;-78
2022/03/07 00:47:40;;;;;;;;;49.25;43.00;;;;;5.29;48.72;101557.97;5054446;28;46123;-79
2022/03/07 00:50:06;;;;;;;;;58.50;43.00;;;;;5.29;48.88;101561.38;5053574;28;45746;-76
2022/03/07 00:52:32;;;;;;;;;58.00;44.00;;;;;5.26;49.20;101566.69;5054595;28;45631;-78
2022/03/07 00:54:57;;;;;;;;;58.50;44.00;;;;;5.25;48.84;101569.34;5054497;28;45631;-77
2022/03/07 00:57:23;;;;;;;;;52.50;41.00;;;;;5.21;48.95;101558.22;5054411;28;46263;-78
2022/03/07 00:59:48;;;;;;;;;53.25;44.25;;;;;5.21;49.14;101572.94;5054591;28;45688;-78
2022/03/07 01:02:14;;;;;;;;;52.00;42.25;;;;;5.18;49.05;101560.91;5053995;28;45732;-77
2022/03/07 01:04:39;;;;;;;;;50.00;42.50;;;;;5.17;49.09;101561.81;5053982;28;46409;-78
2022/03/07 01:07:04;;;;;;;;;58.25;43.75;;;;;5.13;49.06;101551.59;5054209;28;46372;-77
2022/03/07 01:09:30;;;;;;;;;49.50;37.00;;;;;5.18;49.19;101563.53;5054470;28;45582;-74
2022/03/07 01:11:55;;;;;;;;;60.25;43.75;;;;;5.11;49.21;101558.56;5053799;28;45739;-77
2022/03/07 01:17:43;;;;;;;;;63.50;44.75;;;;;5.09;49.71;101571.59;5053014;28;46197;-78
2022/03/07 01:20:10;;;;;;;;;54.25;42.25;;;;;5.08;49.49;101559.50;5053892;28;45678;-78
2022/03/07 01:22:35;;;;;;;;;59.00;45.00;;;;;5.05;49.22;101560.47;5053881;28;46013;-78
2022/03/07 01:25:03;;;;;;;;;55.75;43.75;;;;;5.07;49.83;101552.63;5054087;28;45567;-76
2022/03/07 01:27:29;;;;;;;;;53.25;44.25;;;;;5.00;49.57;101549.38;5053438;28;48153;-78
2022/03/07 01:33:15;;;;;;;;;46.50;41.50;;;;;5.01;50.14;101552.84;5053884;28;45498;-76
2022/03/07 01:35:41;;;;;;;;;46.25;41.25;;;;;4.98;49.77;101553.78;5053908;28;45563;-75
2022/03/07 01:38:06;;;;;;;;;46.50;40.75;;;;;4.90;50.12;101548.00;5054035;28;45799;-77
2022/03/07 01:40:33;;;;;;;;;46.50;40.50;;;;;4.92;49.88;101551.38;5052444;28;45680;-79
2022/03/07 01:42:58;;;;;;;;;54.75;40.75;;;;;4.89;50.27;101548.03;5053884;28;45722;-77
2022/03/07 01:45:24;;;;;;;;;50.75;34.25;;;;;4.86;50.19;101543.78;5053663;28;45601;-78
2022/03/07 01:47:49;;;;;;;;;49.50;41.50;;;;;4.83;50.39;101543.03;5053541;28;46015;-80
2022/03/07 01:50:18;;;;;;;;;52.25;41.25;;;;;4.82;50.30;101551.72;5053777;28;45882;-75
2022/03/07 01:52:48;;;;;;;;;53.75;44.25;;;;;4.76;50.52;101546.72;5054050;28;45492;-79
2022/03/07 01:55:14;;;;;;;;;56.50;42.75;;;;;4.72;50.45;101548.56;5052987;28;46619;-77
2022/03/07 01:57:41;;;;;;;;;50.50;42.00;;;;;4.71;50.10;101549.47;5053524;28;46286;-79
2022/03/07 02:03:29;;;;;;;;;50.00;39.50;;;;;4.63;50.67;101534.16;5053266;28;45738;-76
2022/03/07 02:05:54;;;;;;;;;47.75;40.25;;;;;4.62;50.55;101539.38;5053182;28;46740;-76
2022/03/07 02:08:20;;;;;;;;;48.50;41.25;;;;;4.59;50.77;101522.16;5052857;28;46439;-78
2022/03/07 02:10:46;;;;;;;;;41.00;36.50;;;;;4.60;50.73;101528.19;5052894;28;45812;-79
2022/03/07 02:13:13;;;;;;;;;39.50;31.25;;;;;4.59;50.71;101531.69;5052391;28;45810;-80
2022/03/07 02:15:39;;;;;;;;;47.00;42.25;;;;;4.58;50.85;101532.59;5034892;28;46663;-78
2022/03/07 02:18:05;;;;;;;;;43.25;37.75;;;;;4.51;50.72;101521.56;5052803;28;46270;-75
2022/03/07 02:20:30;;;;;;;;;40.00;38.50;;;;;4.53;50.83;101535.34;5052959;28;45950;-79
2022/03/07 02:22:56;;;;;;;;;52.00;43.00;;;;;4.49;51.19;101517.31;5053510;28;45830;-79
2022/03/07 02:25:21;;;;;;;;;38.50;34.50;;;;;4.48;51.09;101519.03;5051571;28;48629;-78
2022/03/07 02:27:47;;;;;;;;;48.00;35.50;;;;;4.45;51.00;101508.78;5052874;28;45595;-78
2022/03/07 02:33:34;;;;;;;;;50.25;42.25;;;;;4.40;51.49;101512.41;5051921;28;45636;-76
2022/03/07 02:36:01;;;;;;;;;49.75;35.00;;;;;4.39;50.87;101508.13;5052884;28;45663;-78
2022/03/07 02:38:26;;;;;;;;;50.00;43.25;;;;;4.35;51.39;101507.38;5052910;28;45957;-79
2022/03/07 02:40:52;;;;;;;;;48.00;36.00;;;;;4.32;51.41;101507.44;5052149;28;45716;-79
2022/03/07 02:43:18;;;;;;;;;41.25;36.25;;;;;4.32;51.32;101498.84;5052921;28;45702;-77
2022/03/07 02:45:44;;;;;;;;;45.50;35.00;;;;;4.32;51.11;101491.06;5052587;28;45786;-77
2022/03/07 02:48:10;;;;;;;;;44.00;38.50;;;;;4.28;51.42;101490.28;5052680;28;46226;-78
2022/03/07 02:50:36;;;;;;;;;42.00;38.00;;;;;4.30;51.46;101487.66;5052188;28;45685;-80
2022/03/07 02:53:02;;;;;;;;;39.75;33.50;;;;;4.29;51.17;101486.81;5034457;28;45753;-77
2022/03/07 02:55:28;;;;;;;;;46.50;37.50;;;;;4.27;51.38;101486.00;5052527;28;46504;-79
2022/03/07 02:57:53;;;;;;;;;41.00;34.75;;;;;4.25;51.47;101481.78;5052648;28;45644;-77
2022/03/07 03:03:40;;;;;;;;;40.25;33.25;;;;;4.25;51.44;101492.13;5052499;28;45777;-75
2022/03/07 03:06:06;;;;;;;;;41.00;35.75;;;;;4.22;51.56;101487.88;5052431;28;45722;-76
2022/03/07 03:08:31;;;;;;;;;39.25;34.00;;;;;4.19;51.48;101488.84;5052200;28;47480;-77
2022/03/07 03:10:57;;;;;;;;;42.00;33.75;;;;;4.20;51.51;101487.09;5051455;28;45679;-76
2022/03/07 03:13:24;;;;;;;;;37.75;32.25;;;;;4.17;51.33;101477.66;5053100;28;45692;-77
2022/03/07 03:19:11;;;;;;;;;46.75;37.50;;;;;4.10;51.78;101483.09;5053809;28;45766;-76
2022/03/07 03:21:36;;;;;;;;;42.75;32.00;;;;;4.04;51.56;101481.53;5055521;28;45692;-78
2022/03/07 03:24:01;;;;;;;;;35.50;32.25;;;;;4.01;51.80;101479.03;5055993;28;45653;-76
2022/03/07 03:26:27;;;;;;;;;41.25;35.25;;;;;4.01;51.96;101480.75;5056020;28;46606;-80
2022/03/07 03:28:52;;;;;;;;;46.00;37.00;;;;;3.98;51.70;101475.69;5055266;28;45748;-77
2022/03/07 03:31:17;;;;;;;;;39.75;35.50;;;;;3.97;52.00;101473.97;5055503;28;45637;-77
2022/03/07 03:33:43;;;;;;;;;44.00;35.25;;;;;3.93;51.86;101473.22;5054336;28;45976;-76
2022/03/07 03:36:08;;;;;;;;;39.25;36.50;;;;;3.93;52.29;101475.81;5055574;28;46246;-77
2022/03/07 03:38:34;;;;;;;;;45.25;36.25;;;;;3.94;52.00;101481.84;5055606;28;45623;-76
2022/03/07 03:40:59;;;;;;;;;40.25;33.25;;;;;3.89;52.31;101484.56;5055383;28;45622;-77
2022/03/07 03:43:24;;;;;;;;;42.00;36.50;;;;;3.89;52.51;101481.16;5055799;28;45567;-77
2022/03/07 03:49:12;;;;;;;;;30.75;25.50;;;;;3.80;52.35;101482.25;5055271;28;45799;-78
2022/03/07 03:51:37;;;;;;;;;35.50;33.00;;;;;3.82;52.28;101487.41;5055303;28;45735;-77
2022/03/07 03:54:02;;;;;;;;;43.50;38.25;;;;;3.79;52.23;101485.72;5055198;28;45852;-78
2022/03/07 03:56:28;;;;;;;;;44.75;34.75;;;;;3.77;52.46;101484.94;5055043;28;47591;-76
2022/03/07 03:58:53;;;;;;;;;41.50;32.75;;;;;3.74;52.47;101491.03;5053678;28;46734;-76
2022/03/07 04:01:19;;;;;;;;;49.00;39.50;;;;;3.73;52.32;101489.34;5054886;28;45527;-77
2022/03/07 04:03:44;;;;;;;;;42.75;37.00;;;;;3.71;52.47;101487.72;5055498;28;45722;-76
2022/03/07 04:06:10;;;;;;;;;39.50;34.00;;;;;3.72;52.71;101486.81;5054040;28;47645;-74
2022/03/07 04:08:39;;;;;;;;;37.25;29.75;;;;;3.68;52.54;101488.63;5055234;28;45598;-78
2022/03/07 04:11:04;;;;;;;;;45.00;38.25;;;;;3.70;52.81;101489.44;5053303;28;45774;-76
2022/03/07 04:13:30;;;;;;;;;37.50;32.00;;;;;3.71;52.52;101495.47;5055378;28;45692;-79
2022/03/07 04:19:17;;;;;;;;;35.75;33.25;;;;;3.66;52.77;101480.06;5054771;28;45989;-78
2022/03/07 04:21:43;;;;;;;;;38.25;30.75;;;;;3.70;52.79;101486.84;5055847;28;45690;-79
2022/03/07 04:24:10;;;;;;;;;47.00;34.50;;;;;3.66;52.78;101487.84;5036849;28;45871;-78
2022/03/07 04:26:35;;;;;;;;;38.50;31.00;;;;;3.65;52.79;101495.66;5053604;28;45876;-78
2022/03/07 04:29:05;;;;;;;;;48.00;33.50;;;;;3.67;52.71;101491.28;5054809;28;45758;-80
2022/03/07 04:34:52;;;;;;;;;39.75;35.50;;;;;3.63;52.94;101505.19;5054958;28;45770;-76
2022/03/07 04:37:17;;;;;;;;;40.50;31.25;;;;;3.58;52.96;101481.16;5055111;28;46374;-77
2022/03/07 04:39:42;;;;;;;;;49.50;37.75;;;;;3.57;52.95;101487.22;5054785;28;45717;-78
2022/03/07 04:42:08;;;;;;;;;37.50;34.25;;;;;3.60;52.95;101490.59;5053986;28;45801;-80
2022/03/07 04:44:33;;;;;;;;;35.25;32.00;;;;;3.55;52.84;101489.88;5054855;28;45782;-78
2022/03/07 04:46:58;;;;;;;;;40.75;34.50;;;;;3.56;53.07;101485.56;5054988;28;45606;-78
2022/03/07 04:49:24;;;;;;;;;41.75;33.75;;;;;3.56;53.06;101491.59;5054700;28;46802;-78
2022/03/07 04:51:49;;;;;;;;;37.75;33.75;;;;;3.54;53.02;101493.34;5054384;28;45542;-79
2022/03/07 04:54:16;;;;;;;;;35.50;32.50;;;;;3.52;53.45;101497.72;5054877;28;45722;-78
2022/03/07 04:56:47;;;;;;;;;44.25;34.00;;;;;3.49;52.97;101496.97;5054399;28;46558;-80
2022/03/07 04:59:13;;;;;;;;;38.75;34.00;;;;;3.51;53.15;101500.38;5054453;28;46154;-80
2022/03/07 05:05:00;;;;;;;;;48.00;34.50;;;;;3.43;53.31;101499.72;5054261;28;45890;-79
2022/03/07 05:07:26;;;;;;;;;34.75;33.50;;;;;3.41;53.43;101504.09;5054332;28;45726;-80
2022/03/07 05:09:51;;;;;;;;;46.50;36.00;;;;;3.37;53.19;101499.00;5053539;28;47044;-79
2022/03/07 05:12:17;;;;;;;;;44.00;34.25;;;;;3.37;53.43;101498.16;5054282;28;45630;-77
2022/03/07 05:14:42;;;;;;;;;36.00;31.00;;;;;3.33;53.36;101497.41;5053672;28;45635;-78
2022/03/07 05:17:08;;;;;;;;;29.25;26.50;;;;;3.32;53.44;101493.09;5054120;28;45629;-77
2022/03/07 05:19:33;;;;;;;;;34.25;30.00;;;;;3.31;53.37;101498.31;5053375;28;47014;-78
2022/03/07 05:21:59;;;;;;;;;31.75;28.75;;;;;3.31;53.43;101499.16;5053640;28;45516;-77
2022/03/07 05:24:25;;;;;;;;;40.75;32.50;;;;;3.29;53.53;101493.16;5054053;28;45484;-80
2022/03/07 05:26:51;;;;;;;;;35.25;29.50;;;;;3.29;53.36;101498.34;5053836;28;46466;-80
2022/03/07 05:29:16;;;;;;;;;38.75;28.50;;;;;3.28;53.95;101498.41;5053962;28;45650;-79
2022/03/07 05:35:03;;;;;;;;;39.25;31.00;;;;;3.20;53.77;101500.34;5053680;28;45752;-79
2022/03/07 05:37:29;;;;;;;;;32.25;29.25;;;;;3.19;53.69;101499.47;5053064;28;45767;-80
2022/03/07 05:39:55;;;;;;;;;38.50;31.00;;;;;3.18;53.99;101508.16;5051709;28;46961;-80
2022/03/07 05:42:21;;;;;;;;;43.00;35.75;;;;;3.13;53.68;101502.22;5053723;28;45762;-79
2022/03/07 05:44:47;;;;;;;;;43.50;37.25;;;;;3.12;54.07;101492.78;5053622;28;45571;-77
2022/03/07 05:50:34;;;;;;;;;34.00;30.00;;;;;3.13;53.88;101506.59;5052856;28;46011;-76
2022/03/07 05:52:59;;;;;;;;;35.25;33.75;;;;;3.11;54.00;101509.19;5053448;28;45578;-78
2022/03/07 05:55:25;;;;;;;;;39.25;34.75;;;;;3.12;53.76;101502.28;5052867;28;45738;-78
2022/03/07 05:57:50;;;;;;;;;30.50;25.75;;;;;3.09;54.05;101502.34;5053601;28;46612;-77
2022/03/07 06:00:16;;;;;;;;;36.50;33.25;;;;;3.11;53.82;101506.63;5052418;28;46244;-75
2022/03/07 06:02:42;;;;;;;;;38.50;33.25;;;;;3.10;53.94;101510.09;5053701;28;45685;-78
2022/03/07 06:05:07;;;;;;;;;41.25;32.50;;;;;3.07;54.05;101511.91;5052987;28;45825;-77
2022/03/07 06:07:33;;;;;;;;;42.00;33.25;;;;;2.99;54.07;101501.75;5053004;28;46859;-75
2022/03/07 06:09:58;;;;;;;;;31.50;27.25;;;;;2.97;54.19;101501.78;5034807;28;47336;-76
2022/03/07 06:12:26;;;;;;;;;39.25;30.00;;;;;2.99;54.34;101512.09;5053330;28;45706;-74
2022/03/07 06:14:52;;;;;;;;;36.75;31.50;;;;;2.97;54.29;101506.09;5053426;28;45681;-76
2022/03/07 06:20:39;;;;;;;;;38.75;34.00;;;;;2.97;54.03;101519.88;5050721;28;46237;-76
2022/03/07 06:23:06;;;;;;;;;35.50;31.50;;;;;2.99;53.83;101519.00;5053324;28;45603;-75
2022/03/07 06:25:33;;;;;;;;;39.50;31.25;;;;;2.99;53.82;101524.19;5053158;28;45869;-76
2022/03/07 06:27:59;;;;;;;;;45.00;38.25;;;;;3.00;54.24;101531.06;5053055;28;46551;-76
2022/03/07 06:30:25;;;;;;;;;40.50;33.75;;;;;2.97;54.41;101524.22;5052681;28;46785;-78
2022/03/07 06:32:59;;;;;;;;;45.00;35.75;;;;;2.99;54.08;101514.69;5053418;28;45872;-75
2022/03/07 06:35:30;;;;;;;;;39.25;32.25;;;;;2.94;54.04;101509.63;5053299;28;45618;-79
2022/03/07 06:37:55;;;;;;;;;40.25;34.50;;;;;2.94;54.34;101503.59;5051899;28;48642;-79
2022/03/07 06:40:22;;;;;;;;;40.00;32.00;;;;;2.88;54.38;101504.59;5052115;28;45826;-79
2022/03/07 06:42:48;;;;;;;;;54.75;39.00;;;;;3.04;53.68;101523.19;5052985;28;45607;-77
2022/03/07 06:45:16;;;;;;;;;39.75;28.50;;;;;3.03;54.19;101516.28;5052686;28;45881;-77
2022/03/07 06:51:03;;;;;;;;;33.75;30.25;;;;;3.10;53.92;101535.13;5055968;28;45997;-78
2022/03/07 06:53:29;;;;;;;;;45.25;36.25;;;;;3.11;53.42;101529.91;5056391;28;45788;-74
2022/03/07 06:55:54;;;;;;;;;39.00;33.00;;;;;3.14;54.57;101531.56;5056011;28;45800;-77
2022/03/07 06:58:21;;;;;;;;;41.00;33.00;;;;;3.15;53.43;101528.09;5056352;28;46565;-77
2022/03/07 07:00:47;;;;;;;;;73.25;57.25;;;;;3.14;53.89;101519.47;5055897;28;46308;-76
2022/03/07 07:03:12;;;;;;;;;37.50;32.75;;;;;3.16;53.76;101520.28;5055839;28;45753;-77
2022/03/07 07:05:38;;;;;;;;;33.75;31.50;;;;;3.15;53.53;101528.94;5056418;28;45853;-75
2022/03/07 07:08:04;;;;;;;;;42.00;33.75;;;;;3.12;53.33;101517.81;5056037;28;46538;-74
2022/03/07 07:10:35;;;;;;;;;34.00;26.50;;;;;3.17;53.56;101522.00;5037229;28;47129;-78
2022/03/07 07:13:01;;;;;;;;;43.00;37.00;;;;;3.19;53.54;101525.38;5055583;28;45851;-78
2022/03/07 07:15:29;;;;;;;;;46.25;35.75;;;;;3.19;53.73;101525.38;5056131;28;45672;-82
2022/03/07 07:21:16;;;;;;;;;35.25;32.75;;;;;3.19;53.27;101515.00;5054337;28;46015;-77
2022/03/07 07:23:41;;;;;;;;;40.50;34.50;;;;;3.20;53.43;101521.91;5055982;28;45477;-78
2022/03/07 07:26:07;;;;;;;;;43.50;34.75;;;;;3.22;53.37;101517.53;5055008;28;45665;-76
2022/03/07 07:28:34;;;;;;;;;34.75;31.75;;;;;3.24;53.37;101528.69;5057088;28;46153;-75
2022/03/07 07:30:59;;;;;;;;;40.75;33.50;;;;;3.25;53.53;101519.19;5056904;28;46222;-75
2022/03/07 07:33:25;;;;;;;;;44.00;37.75;;;;;3.27;53.04;101522.59;5056666;28;45819;-76
2022/03/07 07:35:50;;;;;;;;;47.00;37.25;;;;;3.29;53.33;101524.22;5056368;28;45814;-76
2022/03/07 07:38:16;;;;;;;;;50.25;37.75;;;;;3.26;53.39;101518.28;5056343;28;47369;-77
2022/03/07 07:40:43;;;;;;;;;40.00;37.50;;;;;3.32;53.15;101531.94;5055801;28;45710;-79
2022/03/07 07:43:08;;;;;;;;;34.25;31.25;;;;;3.34;52.95;101537.09;5056084;28;45645;-82
2022/03/07 07:45:34;;;;;;;;;36.75;35.00;;;;;3.32;52.84;101536.25;5056133;28;45535;-80
2022/03/07 07:51:22;;;;;;;;;43.75;35.00;;;;;3.33;53.03;101515.53;5054759;28;45696;-77
2022/03/07 07:53:47;;;;;;;;;46.75;39.75;;;;;3.34;52.97;101512.03;5056011;28;45656;-79
2022/03/07 07:56:13;;;;;;;;;40.25;37.25;;;;;3.35;52.91;101518.91;5055550;28;45684;-80
2022/03/07 07:58:39;;;;;;;;;42.75;34.50;;;;;3.40;52.90;101525.72;5055216;28;46442;-80
2022/03/07 08:01:04;;;;;;;;;42.75;35.00;;;;;3.43;52.77;101528.22;5054601;28;46245;-81
2022/03/07 08:06:51;;;;;;;;;41.75;31.75;;;;;3.50;52.53;101519.41;5055276;28;45761;-81
2022/03/07 08:09:17;;;;;;;;;33.75;28.75;;;;;3.52;52.61;101509.81;5053436;28;47701;-81
2022/03/07 08:11:42;;;;;;;;;92.75;59.50;;;;;3.58;52.44;101515.69;5055109;28;45693;-80
2022/03/07 08:14:08;;;;;;;;;42.75;36.75;;;;;3.60;52.32;101511.31;5036814;28;45890;-78
2022/03/07 08:16:33;;;;;;;;;42.75;35.50;;;;;3.62;51.94;101500.91;5055296;28;46286;-76
2022/03/07 08:18:59;;;;;;;;;50.00;36.25;;;;;3.67;52.16;101512.00;5054788;28;46537;-78
2022/03/07 08:21:25;;;;;;;;;39.50;32.50;;;;;3.69;52.13;101507.63;5032891;28;46032;-80
2022/03/07 08:23:53;;;;;;;;;50.50;37.25;;;;;3.75;51.74;101516.06;5034990;28;45898;-77
2022/03/07 08:26:18;;;;;;;;;42.25;37.75;;;;;3.78;51.72;101508.19;5034771;28;45877;-78
2022/03/07 08:28:44;;;;;;;;;34.25;31.25;;;;;3.84;51.80;101514.09;5034753;28;45701;-80
2022/03/07 08:31:09;;;;;;;;;35.75;33.00;;;;;3.84;51.65;101511.50;5034380;28;45976;-80
2022/03/07 08:36:57;;;;;;;;;36.00;30.00;;;;;3.91;51.24;101506.09;5035096;28;45703;-81
2022/03/07 08:39:22;;;;;;;;;43.75;35.50;;;;;3.98;51.01;101507.63;5034592;28;45604;-79
2022/03/07 08:41:47;;;;;;;;;44.75;37.50;;;;;4.03;51.18;101503.16;5034632;28;46959;-79
2022/03/07 08:44:13;;;;;;;;;35.50;31.25;;;;;4.09;50.95;101505.56;5035469;28;45807;-79
2022/03/07 08:46:39;;;;;;;;;41.50;34.25;;;;;4.11;50.76;101496.00;5035006;28;45859;-79
2022/03/07 08:49:04;;;;;;;;;37.75;30.25;;;;;4.11;50.62;101498.59;5034268;28;46557;-79
2022/03/07 08:51:30;;;;;;;;;30.75;29.75;;;;;4.16;50.33;101494.09;5034454;28;46098;-76
2022/03/07 08:53:55;;;;;;;;;35.75;31.00;;;;;4.17;50.02;101494.97;5034192;28;45613;-78
2022/03/07 08:56:20;;;;;;;;;40.00;31.25;;;;;4.23;50.30;101503.41;5034620;28;45690;-77
2022/03/07 08:58:46;;;;;;;;;39.00;32.50;;;;;4.23;49.96;101498.22;5034423;28;46517;-75
2022/03/07 09:01:12;;;;;;;;;40.75;35.25;;;;;4.30;49.78;101500.63;5034299;28;45690;-77
2022/03/07 09:06:59;;;;;;;;;43.00;38.50;;;;;4.34;49.77;101495.28;5033795;28;45667;-81
2022/03/07 09:09:26;;;;;;;;;40.50;33.25;;;;;4.41;50.26;101499.41;5033523;28;45837;-78
2022/03/07 09:11:51;;;;;;;;;46.25;30.25;;;;;4.41;49.67;101499.41;5033068;28;46075;-80
2022/03/07 09:14:16;;;;;;;;;29.50;23.50;;;;;4.51;49.66;101495.63;5033917;28;45790;-79
2022/03/07 09:16:42;;;;;;;;;23.75;19.00;;;;;4.52;49.48;101488.69;5034132;28;45727;-80
2022/03/07 09:22:29;;;;;;;;;32.50;29.75;;;;;4.64;49.25;101494.31;5051574;28;45903;-79
2022/03/07 09:24:55;;;;;;;;;31.50;27.00;;;;;4.59;49.13;101474.59;5052419;28;45705;-78
2022/03/07 09:27:20;;;;;;;;;37.75;31.25;;;;;4.73;49.04;101488.00;5053749;28;45599;-79
2022/03/07 09:29:47;;;;;;;;;34.00;32.00;;;;;4.81;49.37;101500.69;5053119;28;46389;-80
2022/03/07 09:32:12;;;;;;;;;35.00;30.00;;;;;4.85;48.95;101487.59;5053517;28;46221;-78
2022/03/07 09:34:38;;;;;;;;;37.00;31.50;;;;;4.95;48.46;101498.50;5052697;28;45671;-77
2022/03/07 09:37:04;;;;;;;;;33.25;30.75;;;;;4.99;48.36;101487.13;5054142;28;45723;-79
2022/03/07 09:39:31;;;;;;;;;40.50;30.75;;;;;5.00;48.60;101483.63;5051415;28;47740;-79
2022/03/07 09:41:57;;;;;;;;;43.00;35.25;;;;;5.10;48.49;101497.13;5053590;28;46366;-80
2022/03/07 09:44:23;;;;;;;;;44.25;37.50;;;;;5.13;48.61;101494.44;5035435;28;45832;-82
2022/03/07 09:46:50;;;;;;;;;35.00;34.00;;;;;5.17;47.90;101488.25;5052360;28;45781;-81
2022/03/07 09:52:37;;;;;;;;;39.50;33.50;;;;;5.20;47.50;101486.38;5053411;28;45843;-79
2022/03/07 09:55:04;;;;;;;;;34.50;32.25;;;;;5.28;47.58;101492.16;5053247;28;45501;-80
2022/03/07 09:57:30;;;;;;;;;40.00;30.50;;;;;5.32;47.22;101490.28;5053701;28;45786;-80
2022/03/07 09:59:56;;;;;;;;;32.75;29.00;;;;;5.25;47.14;101466.28;5052871;28;46493;-81
2022/03/07 10:02:25;;;;;;;;;23.00;18.25;;;;;5.32;47.04;101466.91;5053070;28;46242;-80
2022/03/07 10:04:50;;;;;;;;;35.25;27.50;;;;;5.42;46.80;101479.53;5053125;28;45610;-80
2022/03/07 10:07:16;;;;;;;;;37.25;27.75;;;;;5.33;46.51;101453.88;5053437;28;46212;-82
2022/03/07 10:09:42;;;;;;;;;32.00;29.50;;;;;5.41;46.62;101461.38;5053058;28;46382;-81
2022/03/07 10:12:09;;;;;;;;;42.00;33.00;;;;;5.47;46.44;101466.38;5053779;28;46006;-82
2022/03/07 10:14:47;;;;;;;;;39.75;30.25;;;;;5.53;46.16;101458.34;5054055;28;45954;-80
2022/03/07 10:24:03;;;;;;;;;32.00;29.75;;;;;5.69;45.16;101456.03;4971576;28;46390;-80
2022/03/07 10:26:34;;;;;;;;;32.00;30.25;;;;;5.78;45.55;101458.28;4971580;28;46392;-80
2022/03/07 10:28:59;;;;;;;;;42.00;36.50;;;;;5.82;45.42;101462.47;4971648;28;45808;-78
2022/03/07 10:31:26;;;;;;;;;28.75;25.00;;;;;5.69;44.98;101430.03;4970876;28;45689;-80
2022/03/07 10:37:13;;;;;;;;;34.00;26.00;;;;;5.90;44.78;101458.69;4971098;28;45771;-80
2022/03/07 10:39:52;;;;;;;;;43.00;32.25;;;;;5.93;45.17;101452.56;4970456;28;46107;-80
2022/03/07 10:42:19;;;;;;;;;34.25;28.75;;;;;6.00;44.89;101450.53;4970965;28;46507;-79
2022/03/07 10:44:46;;;;;;;;;33.25;29.75;;;;;6.04;44.83;101444.34;4971096;28;46176;-80
2022/03/07 10:47:14;;;;;;;;;35.00;31.50;;;;;5.99;43.61;101431.50;4970996;28;45919;-81
2022/03/07 10:53:05;;;;;;;;;32.50;27.50;;;;;6.10;44.03;101431.91;4970514;28;46096;-80
2022/03/07 10:55:33;;;;;;;;;37.25;29.75;;;;;6.12;44.06;101439.66;4970340;28;46504;-80
2022/03/07 10:58:13;;;;;;;;;36.75;30.75;;;;;6.21;43.82;101428.88;5029880;28;46485;-80
2022/03/07 11:00:51;;;;;;;;;31.25;29.00;;;;;6.21;43.57;101421.06;5013976;28;45835;-82
2022/03/07 11:03:25;;;;;;;;;34.25;30.25;;;;;6.27;43.98;101423.44;5032207;28;45663;-80
2022/03/07 11:05:52;;;;;;;;;37.50;33.50;;;;;6.36;43.42;101432.66;5032666;28;46548;-80
2022/03/07 11:08:20;;;;;;;;;33.25;28.25;;;;;6.32;43.08;101419.75;5032499;28;45646;-80
2022/03/07 11:10:52;;;;;;;;;37.50;31.50;;;;;6.43;41.78;101423.66;5032330;28;45628;-80
2022/03/07 11:13:19;;;;;;;;;29.75;26.25;;;;;6.44;42.66;101435.78;5014049;28;47816;-79
2022/03/07 11:15:46;;;;;;;;;36.75;30.00;;;;;6.43;42.61;101414.09;5032307;28;46159;-81
2022/03/07 11:18:14;;;;;;;;;38.25;31.50;;;;;6.48;42.14;101419.16;5032401;28;45600;-81
2022/03/07 11:20:42;;;;;;;;;34.50;28.50;;;;;6.50;42.19;101412.09;5032286;28;45987;-81
2022/03/07 11:23:10;;;;;;;;;27.00;20.75;;;;;6.46;41.94;101394.94;5043010;28;45674;-80
2022/03/07 11:25:37;;;;;;;;;31.25;25.75;;;;;6.56;41.40;101406.66;5032369;28;46453;-81
2022/03/07 11:28:03;;;;;;;;;33.50;27.50;;;;;6.50;41.78;101391.28;5051421;28;45956;-80
2022/03/07 11:30:41;;;;;;;;;32.00;26.75;;;;;6.54;41.74;101391.06;5051200;28;45759;-81
2022/03/07 11:33:09;;;;;;;;;35.75;31.50;;;;;6.57;41.83;101390.97;5050219;28;45777;-81
2022/03/07 11:35:34;;;;;;;;;28.75;25.75;;;;;6.62;41.16;101390.78;5053541;28;45772;-80
2022/03/07 11:38:14;;;;;;;;;31.75;27.75;;;;;6.62;41.52;101386.41;5055255;28;45543;-81
2022/03/07 11:41:06;;;;;;;;;33.50;29.25;;;;;6.68;41.69;101377.50;5054633;28;45889;-81
2022/03/07 11:43:48;;;;;;;;;28.25;23.50;;;;;6.63;41.51;101379.44;5054184;28;46681;-80
2022/03/07 11:46:25;;;;;;;;;34.25;30.50;;;;;6.66;41.43;101361.94;5054441;28;46177;-80
2022/03/07 11:48:50;;;;;;;;;33.50;28.75;;;;;6.67;41.57;101355.81;5054101;28;45978;-81
2022/03/07 11:51:22;;;;;;;;;35.00;30.75;;;;;6.73;41.26;101363.38;5054022;28;45504;-81
2022/03/07 11:53:48;;;;;;;;;38.00;30.75;;;;;6.80;41.67;101363.13;5054298;28;46485;-81
2022/03/07 11:56:16;;;;;;;;;34.00;31.75;;;;;6.79;41.31;101351.00;5054449;28;46666;-81
2022/03/07 11:58:49;;;;;;;;;37.00;29.50;;;;;6.86;41.44;101361.06;5053505;28;45986;-81
2022/03/07 12:01:16;;;;;;;;;33.75;32.25;;;;;6.86;41.67;101342.84;5053863;28;45600;-81
2022/03/07 12:03:41;;;;;;;;;35.50;30.00;;;;;6.84;41.20;101343.81;5054200;28;45575;-81
2022/03/07 12:06:15;;;;;;;;;30.25;28.50;;;;;6.94;41.18;101343.34;5054102;28;46265;-81
2022/03/07 12:08:45;;;;;;;;;36.25;31.25;;;;;7.01;41.02;101349.16;5054102;28;46123;-82
2022/03/07 12:11:33;;;;;;;;;34.25;25.75;;;;;7.04;41.27;101346.38;5053872;28;45659;-82
2022/03/07 12:14:07;;;;;;;;;33.50;29.75;;;;;7.05;41.48;101343.72;5054393;28;45703;-82
2022/03/07 12:16:36;;;;;;;;;32.25;26.25;;;;;7.13;41.13;101335.53;5054019;28;46206;-80
2022/03/07 12:19:08;;;;;;;;;28.25;24.75;;;;;7.15;40.86;101333.72;5053916;28;45662;-82
2022/03/07 12:21:36;;;;;;;;;26.25;25.50;;;;;7.17;41.02;101329.31;5054292;28;45718;-82
2022/03/07 12:24:04;;;;;;;;;29.25;27.50;;;;;7.25;41.00;101335.00;5003198;28;1473689;-85
2022/03/07 12:26:30;;;;;;;;;29.00;24.75;;;;;7.28;40.98;101319.25;5055069;28;46288;-82
2022/03/07 12:28:55;;;;;;;;;36.75;30.25;;;;;7.44;40.77;101335.88;5055366;28;45688;-83
2022/03/07 12:31:21;;;;;;;;;29.75;25.75;;;;;7.50;40.94;101332.13;5036941;28;45889;-85
2022/03/07 12:33:47;;;;;;;;;30.50;25.75;;;;;7.58;41.34;101325.63;5055621;28;45739;-82
2022/03/07 12:36:15;;;;;;;;;26.50;23.25;;;;;7.60;40.42;101320.34;5055423;28;45638;-82
2022/03/07 12:38:55;;;;;;;;;46.75;40.00;;;;;7.69;40.41;101327.72;5036537;28;45741;-81
2022/03/07 12:41:30;;;;;;;;;32.25;29.00;;;;;7.75;40.01;101313.53;5054741;28;45670;-82
2022/03/07 12:43:55;;;;;;;;;33.75;27.50;;;;;7.65;40.08;101305.31;5054977;28;45820;-82
2022/03/07 12:46:21;;;;;;;;;35.50;27.75;;;;;7.79;39.84;101313.31;5053826;28;45592;-82